Frontenac — VGNB — position and weather

sailwx.info

Track history (hours):
 
Tides and Currents Weather Stations Pressure Air Temp Water Temp Dewpoint Dewpoint Depression Visibility Wind Speed Wind Dir Waves Ship Positions

Frontenac

Last reported at 2018-Jun-15 06:44 UTC. Time now 2018-Jun-18 01:35 UTC.
Position N 45°26' W 083°13'.

Length 223 m; draft 7.8 m.

Type: Cargo ship. MMSI: 316001834.

Date/timePositionNaut miles runAvg speedWind from/ knotsBaromVisibWave heightAir tempDewpointWater temp
2018-Jun-15 06:44N 45°26' W 083°13'513.4
2018-Jun-15 06:21N 45°30' W 083°18'513.4
2018-Jun-15 06:00N 45°33' W 083°22'  
2018-Jun-12 11:26N 45°42' W 083°33'613.4
2018-Jun-12 11:00N 45°38' W 083°27'713.5
2018-Jun-12 10:30N 45°33' W 083°21'713.5
2018-Jun-12 10:00N 45°28' W 083°14'1113.5
2018-Jun-12 09:13N 45°21' W 083°03'4 0.1
2018-Jun-10 06:16N 45°17' W 083°05'413.2
2018-Jun-10 06:00N 45°21' W 083°06'613.2
2018-Jun-10 05:30N 45°27' W 083°09'19 1.1
2018-Jun-09 11:58N 45°46' W 083°11'813.3
2018-Jun-09 11:21N 45°39' W 083°05'513.2
2018-Jun-09 11:00N 45°35' W 083°01'713.5
2018-Jun-09 10:28N 45°32' W 082°52'813.4
2018-Jun-09 09:53N 45°28' W 082°42'513.3
2018-Jun-09 09:28N 45°26' W 082°35'713.3
2018-Jun-09 08:55N 45°22' W 082°26'  
2018-Jun-06 14:48N 45°43' W 083°09'913.4
2018-Jun-06 14:08N 45°36' W 083°02'  
Track history (hours):
 
Tides and Currents Weather Stations Pressure Air Temp Water Temp Dewpoint Dewpoint Depression Visibility Wind Speed Wind Dir Waves Ship Positions

Frontenac

Last reported at 2018-Jun-15 06:44 UTC. Time now 2018-Jun-18 01:35 UTC.
Position N 45°26' W 083°13'.

Length 223 m; draft 7.8 m.

Type: Cargo ship. MMSI: 316001834.

Date/timePositionNaut miles runAvg speedWind from/ knotsBaromVisibWave heightAir tempDewpointWater temp
2018-Jun-15 06:44N 45°26' W 083°13'513.4
2018-Jun-15 06:21N 45°30' W 083°18'513.4
2018-Jun-15 06:00N 45°33' W 083°22'  
2018-Jun-12 11:26N 45°42' W 083°33'613.4
2018-Jun-12 11:00N 45°38' W 083°27'713.5
2018-Jun-12 10:30N 45°33' W 083°21'713.5
2018-Jun-12 10:00N 45°28' W 083°14'1113.5
2018-Jun-12 09:13N 45°21' W 083°03'4 0.1
2018-Jun-10 06:16N 45°17' W 083°05'413.2
2018-Jun-10 06:00N 45°21' W 083°06'613.2
2018-Jun-10 05:30N 45°27' W 083°09'19 1.1
2018-Jun-09 11:58N 45°46' W 083°11'813.3
2018-Jun-09 11:21N 45°39' W 083°05'513.2
2018-Jun-09 11:00N 45°35' W 083°01'713.5
2018-Jun-09 10:28N 45°32' W 082°52'813.4
2018-Jun-09 09:53N 45°28' W 082°42'513.3
2018-Jun-09 09:28N 45°26' W 082°35'713.3
2018-Jun-09 08:55N 45°22' W 082°26'  
2018-Jun-06 14:48N 45°43' W 083°09'913.4
2018-Jun-06 14:08N 45°36' W 083°02'  

Dump ship's entire track history